sensor_id;sensor_type;location;lat;lon;timestamp;P1;durP1;ratioP1;P2;durP2;ratioP2
15202;SDS011;7702;51.046;5.184;2022-08-21T00:02:22;8.17;;;6.07;;
15202;SDS011;7702;51.046;5.184;2022-08-21T00:04:51;6.80;;;6.10;;
15202;SDS011;7702;51.046;5.184;2022-08-21T00:07:17;7.53;;;5.67;;
15202;SDS011;7702;51.046;5.184;2022-08-21T00:09:44;6.57;;;5.40;;
15202;SDS011;7702;51.046;5.184;2022-08-21T00:12:10;8.07;;;5.73;;
15202;SDS011;7702;51.046;5.184;2022-08-21T00:14:36;6.70;;;4.87;;
15202;SDS011;7702;51.046;5.184;2022-08-21T00:17:03;5.33;;;4.83;;
15202;SDS011;7702;51.046;5.184;2022-08-21T00:19:31;6.10;;;5.47;;
15202;SDS011;7702;51.046;5.184;2022-08-21T00:21:58;6.17;;;5.00;;
15202;SDS011;7702;51.046;5.184;2022-08-21T00:24:24;5.77;;;4.60;;
15202;SDS011;7702;51.046;5.184;2022-08-21T00:26:51;5.03;;;4.57;;
15202;SDS011;7702;51.046;5.184;2022-08-21T00:29:17;6.10;;;5.23;;
15202;SDS011;7702;51.046;5.184;2022-08-21T00:31:44;6.87;;;5.10;;
15202;SDS011;7702;51.046;5.184;2022-08-21T00:34:10;5.43;;;4.53;;
15202;SDS011;7702;51.046;5.184;2022-08-21T00:36:37;5.63;;;5.10;;
15202;SDS011;7702;51.046;5.184;2022-08-21T00:39:04;5.73;;;5.10;;
15202;SDS011;7702;51.046;5.184;2022-08-21T00:41:31;5.83;;;5.27;;
15202;SDS011;7702;51.046;5.184;2022-08-21T00:43:57;5.97;;;5.47;;
15202;SDS011;7702;51.046;5.184;2022-08-21T00:46:23;5.03;;;4.63;;
15202;SDS011;7702;51.046;5.184;2022-08-21T00:48:49;5.23;;;4.83;;
15202;SDS011;7702;51.046;5.184;2022-08-21T00:51:16;5.73;;;5.23;;
15202;SDS011;7702;51.046;5.184;2022-08-21T00:53:48;6.43;;;4.27;;
15202;SDS011;7702;51.046;5.184;2022-08-21T00:56:19;5.03;;;4.53;;
15202;SDS011;7702;51.046;5.184;2022-08-21T00:58:48;5.40;;;4.93;;
15202;SDS011;7702;51.046;5.184;2022-08-21T01:01:14;6.63;;;5.07;;
15202;SDS011;7702;51.046;5.184;2022-08-21T01:03:41;5.20;;;4.67;;
15202;SDS011;7702;51.046;5.184;2022-08-21T01:06:07;5.93;;;5.33;;
15202;SDS011;7702;51.046;5.184;2022-08-21T01:08:34;4.77;;;4.30;;
15202;SDS011;7702;51.046;5.184;2022-08-21T01:11:00;5.00;;;4.60;;
15202;SDS011;7702;51.046;5.184;2022-08-21T01:13:27;4.90;;;4.40;;
15202;SDS011;7702;51.046;5.184;2022-08-21T01:15:58;4.87;;;4.33;;
15202;SDS011;7702;51.046;5.184;2022-08-21T01:18:25;6.47;;;4.57;;
15202;SDS011;7702;51.046;5.184;2022-08-21T01:23:26;4.77;;;4.37;;
15202;SDS011;7702;51.046;5.184;2022-08-21T01:25:53;5.27;;;4.63;;
15202;SDS011;7702;51.046;5.184;2022-08-21T01:28:18;6.00;;;4.77;;
15202;SDS011;7702;51.046;5.184;2022-08-21T01:30:46;5.60;;;5.10;;
15202;SDS011;7702;51.046;5.184;2022-08-21T01:33:13;6.67;;;4.93;;
15202;SDS011;7702;51.046;5.184;2022-08-21T01:35:39;5.10;;;4.50;;
15202;SDS011;7702;51.046;5.184;2022-08-21T01:38:05;5.00;;;4.50;;
15202;SDS011;7702;51.046;5.184;2022-08-21T01:40:31;5.20;;;4.70;;
15202;SDS011;7702;51.046;5.184;2022-08-21T01:42:57;6.93;;;4.33;;
15202;SDS011;7702;51.046;5.184;2022-08-21T01:45:22;4.73;;;4.33;;
15202;SDS011;7702;51.046;5.184;2022-08-21T01:47:48;4.73;;;4.33;;
15202;SDS011;7702;51.046;5.184;2022-08-21T01:50:15;5.30;;;4.80;;
15202;SDS011;7702;51.046;5.184;2022-08-21T01:52:41;5.93;;;4.80;;
15202;SDS011;7702;51.046;5.184;2022-08-21T01:55:08;4.50;;;4.10;;
15202;SDS011;7702;51.046;5.184;2022-08-21T01:57:35;7.83;;;5.40;;
15202;SDS011;7702;51.046;5.184;2022-08-21T02:00:03;5.13;;;4.30;;
15202;SDS011;7702;51.046;5.184;2022-08-21T02:02:31;5.23;;;4.77;;
15202;SDS011;7702;51.046;5.184;2022-08-21T02:04:57;6.47;;;4.77;;
15202;SDS011;7702;51.046;5.184;2022-08-21T02:07:22;6.40;;;4.77;;
15202;SDS011;7702;51.046;5.184;2022-08-21T02:09:48;5.00;;;4.10;;
15202;SDS011;7702;51.046;5.184;2022-08-21T02:12:14;5.87;;;4.50;;
15202;SDS011;7702;51.046;5.184;2022-08-21T02:14:39;5.17;;;4.43;;
15202;SDS011;7702;51.046;5.184;2022-08-21T02:17:05;6.23;;;5.00;;
15202;SDS011;7702;51.046;5.184;2022-08-21T02:19:31;5.70;;;4.53;;
15202;SDS011;7702;51.046;5.184;2022-08-21T02:21:56;5.70;;;4.47;;
15202;SDS011;7702;51.046;5.184;2022-08-21T02:24:22;5.13;;;4.63;;
15202;SDS011;7702;51.046;5.184;2022-08-21T02:26:48;7.33;;;4.73;;
15202;SDS011;7702;51.046;5.184;2022-08-21T02:29:13;6.63;;;4.90;;
15202;SDS011;7702;51.046;5.184;2022-08-21T02:31:39;6.13;;;4.90;;
15202;SDS011;7702;51.046;5.184;2022-08-21T02:34:05;4.50;;;4.17;;
15202;SDS011;7702;51.046;5.184;2022-08-21T02:36:31;4.90;;;4.43;;
15202;SDS011;7702;51.046;5.184;2022-08-21T02:38:56;5.67;;;4.53;;
15202;SDS011;7702;51.046;5.184;2022-08-21T02:41:22;5.83;;;4.13;;
15202;SDS011;7702;51.046;5.184;2022-08-21T02:43:49;7.27;;;5.23;;
15202;SDS011;7702;51.046;5.184;2022-08-21T02:46:17;4.93;;;4.20;;
15202;SDS011;7702;51.046;5.184;2022-08-21T02:48:44;5.53;;;4.53;;
15202;SDS011;7702;51.046;5.184;2022-08-21T02:51:12;4.90;;;4.40;;
15202;SDS011;7702;51.046;5.184;2022-08-21T02:53:40;6.53;;;4.40;;
15202;SDS011;7702;51.046;5.184;2022-08-21T02:56:07;6.87;;;4.60;;
15202;SDS011;7702;51.046;5.184;2022-08-21T02:58:37;7.07;;;4.37;;
15202;SDS011;7702;51.046;5.184;2022-08-21T03:01:06;8.00;;;4.30;;
15202;SDS011;7702;51.046;5.184;2022-08-21T03:03:34;5.83;;;4.73;;
15202;SDS011;7702;51.046;5.184;2022-08-21T03:06:00;4.87;;;4.07;;
15202;SDS011;7702;51.046;5.184;2022-08-21T03:08:26;4.43;;;3.87;;
15202;SDS011;7702;51.046;5.184;2022-08-21T03:10:52;6.63;;;4.70;;
15202;SDS011;7702;51.046;5.184;2022-08-21T03:13:18;7.80;;;4.17;;
15202;SDS011;7702;51.046;5.184;2022-08-21T03:15:46;5.97;;;4.37;;
15202;SDS011;7702;51.046;5.184;2022-08-21T03:18:12;4.97;;;3.97;;
15202;SDS011;7702;51.046;5.184;2022-08-21T03:20:39;6.63;;;4.53;;
15202;SDS011;7702;51.046;5.184;2022-08-21T03:23:05;5.73;;;4.63;;
15202;SDS011;7702;51.046;5.184;2022-08-21T03:25:33;5.30;;;4.13;;
15202;SDS011;7702;51.046;5.184;2022-08-21T03:28:00;5.73;;;4.33;;
15202;SDS011;7702;51.046;5.184;2022-08-21T03:30:27;7.40;;;4.63;;
15202;SDS011;7702;51.046;5.184;2022-08-21T03:32:53;5.47;;;4.40;;
15202;SDS011;7702;51.046;5.184;2022-08-21T03:35:19;5.13;;;4.63;;
15202;SDS011;7702;51.046;5.184;2022-08-21T03:37:46;5.37;;;4.60;;
15202;SDS011;7702;51.046;5.184;2022-08-21T03:40:13;5.47;;;4.67;;
15202;SDS011;7702;51.046;5.184;2022-08-21T03:42:41;4.97;;;4.53;;
15202;SDS011;7702;51.046;5.184;2022-08-21T03:45:07;8.83;;;4.60;;
15202;SDS011;7702;51.046;5.184;2022-08-21T03:47:33;7.23;;;4.80;;
15202;SDS011;7702;51.046;5.184;2022-08-21T03:49:59;7.03;;;4.97;;
15202;SDS011;7702;51.046;5.184;2022-08-21T03:52:25;7.97;;;5.00;;
15202;SDS011;7702;51.046;5.184;2022-08-21T03:54:50;8.17;;;4.70;;
15202;SDS011;7702;51.046;5.184;2022-08-21T03:57:16;7.23;;;5.47;;
15202;SDS011;7702;51.046;5.184;2022-08-21T03:59:42;7.97;;;5.57;;
15202;SDS011;7702;51.046;5.184;2022-08-21T04:02:08;8.97;;;4.80;;
15202;SDS011;7702;51.046;5.184;2022-08-21T04:04:34;7.47;;;5.03;;
15202;SDS011;7702;51.046;5.184;2022-08-21T04:07:01;8.23;;;5.10;;
15202;SDS011;7702;51.046;5.184;2022-08-21T04:09:27;9.07;;;5.40;;
15202;SDS011;7702;51.046;5.184;2022-08-21T04:11:53;7.77;;;5.40;;
15202;SDS011;7702;51.046;5.184;2022-08-21T04:14:19;7.63;;;5.03;;
15202;SDS011;7702;51.046;5.184;2022-08-21T04:16:45;7.37;;;5.20;;
15202;SDS011;7702;51.046;5.184;2022-08-21T04:19:12;6.27;;;5.10;;
15202;SDS011;7702;51.046;5.184;2022-08-21T04:21:39;5.83;;;4.67;;
15202;SDS011;7702;51.046;5.184;2022-08-21T04:24:05;6.70;;;4.53;;
15202;SDS011;7702;51.046;5.184;2022-08-21T04:26:32;6.30;;;4.70;;
15202;SDS011;7702;51.046;5.184;2022-08-21T04:29:02;6.67;;;4.60;;
15202;SDS011;7702;51.046;5.184;2022-08-21T04:31:31;8.10;;;4.87;;
15202;SDS011;7702;51.046;5.184;2022-08-21T04:33:58;9.00;;;4.63;;
15202;SDS011;7702;51.046;5.184;2022-08-21T04:36:24;6.67;;;4.80;;
15202;SDS011;7702;51.046;5.184;2022-08-21T04:38:49;8.27;;;4.80;;
15202;SDS011;7702;51.046;5.184;2022-08-21T04:41:15;6.70;;;4.53;;
15202;SDS011;7702;51.046;5.184;2022-08-21T04:43:41;5.73;;;4.70;;
15202;SDS011;7702;51.046;5.184;2022-08-21T04:46:08;5.63;;;4.80;;
15202;SDS011;7702;51.046;5.184;2022-08-21T04:48:34;7.73;;;4.97;;
15202;SDS011;7702;51.046;5.184;2022-08-21T04:53:51;6.37;;;5.43;;
15202;SDS011;7702;51.046;5.184;2022-08-21T04:56:22;7.03;;;5.37;;
15202;SDS011;7702;51.046;5.184;2022-08-21T04:58:57;5.77;;;4.50;;
15202;SDS011;7702;51.046;5.184;2022-08-21T05:01:28;5.90;;;4.90;;
15202;SDS011;7702;51.046;5.184;2022-08-21T05:03:56;6.90;;;5.17;;
15202;SDS011;7702;51.046;5.184;2022-08-21T05:06:24;9.43;;;5.80;;
15202;SDS011;7702;51.046;5.184;2022-08-21T05:08:51;7.47;;;5.07;;
15202;SDS011;7702;51.046;5.184;2022-08-21T05:11:20;6.03;;;4.57;;
15202;SDS011;7702;51.046;5.184;2022-08-21T05:13:47;7.20;;;5.03;;
15202;SDS011;7702;51.046;5.184;2022-08-21T05:16:13;7.73;;;5.30;;
15202;SDS011;7702;51.046;5.184;2022-08-21T05:18:40;7.67;;;4.97;;
15202;SDS011;7702;51.046;5.184;2022-08-21T05:21:06;5.97;;;4.90;;
15202;SDS011;7702;51.046;5.184;2022-08-21T05:23:33;6.13;;;5.17;;
15202;SDS011;7702;51.046;5.184;2022-08-21T05:26:00;6.93;;;5.13;;
15202;SDS011;7702;51.046;5.184;2022-08-21T05:28:27;9.93;;;5.10;;
15202;SDS011;7702;51.046;5.184;2022-08-21T05:30:53;6.23;;;5.00;;
15202;SDS011;7702;51.046;5.184;2022-08-21T05:33:18;6.17;;;5.00;;
15202;SDS011;7702;51.046;5.184;2022-08-21T05:35:44;7.47;;;5.17;;
15202;SDS011;7702;51.046;5.184;2022-08-21T05:38:10;5.43;;;4.93;;
15202;SDS011;7702;51.046;5.184;2022-08-21T05:40:36;6.63;;;4.60;;
15202;SDS011;7702;51.046;5.184;2022-08-21T05:43:02;6.37;;;4.60;;
15202;SDS011;7702;51.046;5.184;2022-08-21T05:45:29;8.37;;;4.43;;
15202;SDS011;7702;51.046;5.184;2022-08-21T05:47:56;7.70;;;4.57;;
15202;SDS011;7702;51.046;5.184;2022-08-21T05:50:22;6.70;;;4.73;;
15202;SDS011;7702;51.046;5.184;2022-08-21T05:52:48;8.07;;;4.60;;
15202;SDS011;7702;51.046;5.184;2022-08-21T05:55:13;7.83;;;4.07;;
15202;SDS011;7702;51.046;5.184;2022-08-21T05:57:39;5.60;;;4.33;;
15202;SDS011;7702;51.046;5.184;2022-08-21T06:00:07;6.97;;;4.00;;
15202;SDS011;7702;51.046;5.184;2022-08-21T06:02:35;5.70;;;4.13;;
15202;SDS011;7702;51.046;5.184;2022-08-21T06:05:01;4.10;;;3.73;;
15202;SDS011;7702;51.046;5.184;2022-08-21T06:07:27;4.70;;;3.70;;
15202;SDS011;7702;51.046;5.184;2022-08-21T06:09:53;6.83;;;3.80;;
15202;SDS011;7702;51.046;5.184;2022-08-21T06:12:19;7.40;;;4.83;;
15202;SDS011;7702;51.046;5.184;2022-08-21T06:14:45;6.80;;;4.07;;
15202;SDS011;7702;51.046;5.184;2022-08-21T06:17:11;9.17;;;3.33;;
15202;SDS011;7702;51.046;5.184;2022-08-21T06:19:38;6.73;;;3.73;;
15202;SDS011;7702;51.046;5.184;2022-08-21T06:22:04;6.73;;;3.23;;
15202;SDS011;7702;51.046;5.184;2022-08-21T06:24:30;6.17;;;3.70;;
15202;SDS011;7702;51.046;5.184;2022-08-21T06:26:56;4.83;;;2.93;;
15202;SDS011;7702;51.046;5.184;2022-08-21T06:29:22;6.07;;;3.10;;
15202;SDS011;7702;51.046;5.184;2022-08-21T06:31:49;5.50;;;3.23;;
15202;SDS011;7702;51.046;5.184;2022-08-21T06:34:17;6.27;;;2.90;;
15202;SDS011;7702;51.046;5.184;2022-08-21T06:36:43;6.60;;;3.00;;
15202;SDS011;7702;51.046;5.184;2022-08-21T06:39:09;5.63;;;2.80;;
15202;SDS011;7702;51.046;5.184;2022-08-21T06:41:35;5.97;;;2.70;;
15202;SDS011;7702;51.046;5.184;2022-08-21T06:44:00;5.43;;;3.03;;
15202;SDS011;7702;51.046;5.184;2022-08-21T06:46:29;5.37;;;3.03;;
15202;SDS011;7702;51.046;5.184;2022-08-21T06:48:55;5.60;;;3.20;;
15202;SDS011;7702;51.046;5.184;2022-08-21T06:51:21;5.97;;;3.10;;
15202;SDS011;7702;51.046;5.184;2022-08-21T06:53:48;7.27;;;2.60;;
15202;SDS011;7702;51.046;5.184;2022-08-21T06:56:14;3.53;;;2.63;;
15202;SDS011;7702;51.046;5.184;2022-08-21T06:58:40;5.33;;;2.40;;
15202;SDS011;7702;51.046;5.184;2022-08-21T07:01:06;4.27;;;2.00;;
15202;SDS011;7702;51.046;5.184;2022-08-21T07:03:36;8.83;;;2.80;;
15202;SDS011;7702;51.046;5.184;2022-08-21T07:06:04;7.40;;;2.30;;
15202;SDS011;7702;51.046;5.184;2022-08-21T07:08:31;7.93;;;2.93;;
15202;SDS011;7702;51.046;5.184;2022-08-21T07:10:58;6.30;;;2.40;;
15202;SDS011;7702;51.046;5.184;2022-08-21T07:13:25;4.23;;;1.60;;
15202;SDS011;7702;51.046;5.184;2022-08-21T07:15:52;6.73;;;2.30;;
15202;SDS011;7702;51.046;5.184;2022-08-21T07:18:17;5.53;;;2.80;;
15202;SDS011;7702;51.046;5.184;2022-08-21T07:20:44;5.77;;;2.17;;
15202;SDS011;7702;51.046;5.184;2022-08-21T07:23:34;5.30;;;2.00;;
15202;SDS011;7702;51.046;5.184;2022-08-21T07:25:59;7.43;;;2.67;;
15202;SDS011;7702;51.046;5.184;2022-08-21T07:28:25;7.37;;;2.40;;
15202;SDS011;7702;51.046;5.184;2022-08-21T07:30:52;6.37;;;2.00;;
15202;SDS011;7702;51.046;5.184;2022-08-21T07:33:20;5.50;;;2.07;;
15202;SDS011;7702;51.046;5.184;2022-08-21T07:35:46;7.53;;;2.27;;
15202;SDS011;7702;51.046;5.184;2022-08-21T07:38:13;3.47;;;2.17;;
15202;SDS011;7702;51.046;5.184;2022-08-21T07:40:39;6.03;;;2.30;;
15202;SDS011;7702;51.046;5.184;2022-08-21T07:43:04;6.50;;;2.07;;
15202;SDS011;7702;51.046;5.184;2022-08-21T07:45:30;7.60;;;2.10;;
15202;SDS011;7702;51.046;5.184;2022-08-21T07:47:57;7.60;;;2.20;;
15202;SDS011;7702;51.046;5.184;2022-08-21T07:50:23;4.97;;;1.93;;
15202;SDS011;7702;51.046;5.184;2022-08-21T07:52:49;5.13;;;1.80;;
15202;SDS011;7702;51.046;5.184;2022-08-21T07:55:16;4.67;;;1.70;;
15202;SDS011;7702;51.046;5.184;2022-08-21T07:57:43;6.10;;;1.97;;
15202;SDS011;7702;51.046;5.184;2022-08-21T08:00:11;7.87;;;2.30;;
15202;SDS011;7702;51.046;5.184;2022-08-21T08:02:39;6.30;;;1.90;;
15202;SDS011;7702;51.046;5.184;2022-08-21T08:05:07;5.23;;;2.00;;
15202;SDS011;7702;51.046;5.184;2022-08-21T08:07:35;4.83;;;1.50;;
15202;SDS011;7702;51.046;5.184;2022-08-21T08:10:02;3.37;;;1.80;;
15202;SDS011;7702;51.046;5.184;2022-08-21T08:12:30;4.43;;;1.77;;
15202;SDS011;7702;51.046;5.184;2022-08-21T08:14:56;6.60;;;1.87;;
15202;SDS011;7702;51.046;5.184;2022-08-21T08:17:24;5.17;;;1.53;;
15202;SDS011;7702;51.046;5.184;2022-08-21T08:19:50;5.63;;;1.80;;
15202;SDS011;7702;51.046;5.184;2022-08-21T08:22:17;3.80;;;1.40;;
15202;SDS011;7702;51.046;5.184;2022-08-21T08:24:44;6.03;;;2.03;;
15202;SDS011;7702;51.046;5.184;2022-08-21T08:27:13;5.50;;;2.23;;
15202;SDS011;7702;51.046;5.184;2022-08-21T08:29:39;5.23;;;1.50;;
15202;SDS011;7702;51.046;5.184;2022-08-21T08:32:05;6.43;;;1.77;;
15202;SDS011;7702;51.046;5.184;2022-08-21T08:34:34;6.13;;;1.60;;
15202;SDS011;7702;51.046;5.184;2022-08-21T08:37:01;5.23;;;1.93;;
15202;SDS011;7702;51.046;5.184;2022-08-21T08:39:28;5.00;;;1.33;;
15202;SDS011;7702;51.046;5.184;2022-08-21T08:42:04;5.00;;;1.63;;
15202;SDS011;7702;51.046;5.184;2022-08-21T08:44:35;4.87;;;1.83;;
15202;SDS011;7702;51.046;5.184;2022-08-21T08:47:02;5.97;;;1.50;;
15202;SDS011;7702;51.046;5.184;2022-08-21T08:52:28;3.60;;;1.93;;
15202;SDS011;7702;51.046;5.184;2022-08-21T08:57:29;6.83;;;1.77;;
15202;SDS011;7702;51.046;5.184;2022-08-21T08:59:58;5.97;;;1.40;;
15202;SDS011;7702;51.046;5.184;2022-08-21T09:02:25;3.97;;;1.63;;
15202;SDS011;7702;51.046;5.184;2022-08-21T09:04:54;3.33;;;1.57;;
15202;SDS011;7702;51.046;5.184;2022-08-21T09:13:37;4.20;;;1.17;;
15202;SDS011;7702;51.046;5.184;2022-08-21T09:26:34;5.80;;;1.60;;
15202;SDS011;7702;51.046;5.184;2022-08-21T09:29:10;3.87;;;1.20;;
15202;SDS011;7702;51.046;5.184;2022-08-21T09:31:37;4.50;;;1.40;;
15202;SDS011;7702;51.046;5.184;2022-08-21T09:34:07;4.10;;;1.20;;
15202;SDS011;7702;51.046;5.184;2022-08-21T09:36:46;3.93;;;1.60;;
15202;SDS011;7702;51.046;5.184;2022-08-21T09:39:26;7.20;;;1.43;;
15202;SDS011;7702;51.046;5.184;2022-08-21T09:42:04;3.30;;;1.27;;
15202;SDS011;7702;51.046;5.184;2022-08-21T09:44:32;4.40;;;1.50;;
15202;SDS011;7702;51.046;5.184;2022-08-21T09:47:04;3.03;;;1.13;;
15202;SDS011;7702;51.046;5.184;2022-08-21T09:49:31;3.60;;;1.43;;
15202;SDS011;7702;51.046;5.184;2022-08-21T09:51:59;5.77;;;1.53;;
15202;SDS011;7702;51.046;5.184;2022-08-21T09:54:37;2.60;;;1.40;;
15202;SDS011;7702;51.046;5.184;2022-08-21T09:59:52;5.87;;;1.60;;
15202;SDS011;7702;51.046;5.184;2022-08-21T10:02:32;5.93;;;1.67;;
15202;SDS011;7702;51.046;5.184;2022-08-21T10:05:03;4.57;;;1.60;;
15202;SDS011;7702;51.046;5.184;2022-08-21T10:07:40;2.67;;;1.50;;
15202;SDS011;7702;51.046;5.184;2022-08-21T10:10:07;3.70;;;1.30;;
15202;SDS011;7702;51.046;5.184;2022-08-21T10:18:12;5.37;;;1.40;;
15202;SDS011;7702;51.046;5.184;2022-08-21T10:21:06;2.17;;;1.23;;
15202;SDS011;7702;51.046;5.184;2022-08-21T10:26:43;3.87;;;1.23;;
15202;SDS011;7702;51.046;5.184;2022-08-21T10:32:31;4.37;;;1.47;;
15202;SDS011;7702;51.046;5.184;2022-08-21T10:35:10;7.53;;;1.80;;
15202;SDS011;7702;51.046;5.184;2022-08-21T10:40:38;3.97;;;1.50;;
15202;SDS011;7702;51.046;5.184;2022-08-21T10:51:43;3.60;;;1.47;;
15202;SDS011;7702;51.046;5.184;2022-08-21T10:54:54;4.77;;;1.53;;
15202;SDS011;7702;51.046;5.184;2022-08-21T10:57:46;4.60;;;1.50;;
15202;SDS011;7702;51.046;5.184;2022-08-21T11:00:22;3.43;;;1.67;;
15202;SDS011;7702;51.046;5.184;2022-08-21T11:05:29;4.30;;;1.30;;
15202;SDS011;7702;51.046;5.184;2022-08-21T11:15:56;3.60;;;1.60;;
15202;SDS011;7702;51.046;5.184;2022-08-21T11:29:59;2.53;;;1.50;;
15202;SDS011;7702;51.046;5.184;2022-08-21T11:38:08;5.50;;;1.87;;
15202;SDS011;7702;51.046;5.184;2022-08-21T11:46:43;3.97;;;1.60;;
15202;SDS011;7702;51.046;5.184;2022-08-21T11:51:38;2.73;;;1.40;;
15202;SDS011;7702;51.046;5.184;2022-08-21T11:54:44;5.73;;;1.90;;
15202;SDS011;7702;51.046;5.184;2022-08-21T11:57:17;3.63;;;1.50;;
15202;SDS011;7702;51.046;5.184;2022-08-21T11:59:49;4.60;;;1.67;;
15202;SDS011;7702;51.046;5.184;2022-08-21T12:02:28;5.43;;;1.60;;
15202;SDS011;7702;51.046;5.184;2022-08-21T12:05:03;5.37;;;1.57;;
15202;SDS011;7702;51.046;5.184;2022-08-21T12:07:40;6.70;;;1.47;;
15202;SDS011;7702;51.046;5.184;2022-08-21T12:10:09;7.27;;;1.80;;
15202;SDS011;7702;51.046;5.184;2022-08-21T12:12:41;5.60;;;1.80;;
15202;SDS011;7702;51.046;5.184;2022-08-21T12:17:51;6.70;;;1.83;;
15202;SDS011;7702;51.046;5.184;2022-08-21T12:20:59;4.50;;;1.53;;
15202;SDS011;7702;51.046;5.184;2022-08-21T12:23:29;6.40;;;1.70;;
15202;SDS011;7702;51.046;5.184;2022-08-21T12:28:44;5.67;;;1.90;;
15202;SDS011;7702;51.046;5.184;2022-08-21T12:31:17;3.90;;;1.43;;
15202;SDS011;7702;51.046;5.184;2022-08-21T12:33:47;2.30;;;1.50;;
15202;SDS011;7702;51.046;5.184;2022-08-21T12:36:17;6.43;;;1.73;;
15202;SDS011;7702;51.046;5.184;2022-08-21T12:38:49;4.50;;;1.50;;
15202;SDS011;7702;51.046;5.184;2022-08-21T12:41:21;3.63;;;1.27;;
15202;SDS011;7702;51.046;5.184;2022-08-21T12:44:15;5.43;;;1.60;;
15202;SDS011;7702;51.046;5.184;2022-08-21T12:46:55;3.53;;;1.23;;
15202;SDS011;7702;51.046;5.184;2022-08-21T12:54:26;4.60;;;1.30;;
15202;SDS011;7702;51.046;5.184;2022-08-21T12:57:01;3.57;;;1.63;;
15202;SDS011;7702;51.046;5.184;2022-08-21T12:59:29;4.30;;;1.70;;
15202;SDS011;7702;51.046;5.184;2022-08-21T13:01:56;6.07;;;1.80;;
15202;SDS011;7702;51.046;5.184;2022-08-21T13:04:35;4.40;;;1.30;;
15202;SDS011;7702;51.046;5.184;2022-08-21T13:07:05;4.07;;;1.40;;
15202;SDS011;7702;51.046;5.184;2022-08-21T13:09:36;3.23;;;1.93;;
15202;SDS011;7702;51.046;5.184;2022-08-21T13:12:17;5.43;;;2.57;;
15202;SDS011;7702;51.046;5.184;2022-08-21T13:14:45;5.27;;;1.80;;
15202;SDS011;7702;51.046;5.184;2022-08-21T13:17:13;4.27;;;1.37;;
15202;SDS011;7702;51.046;5.184;2022-08-21T13:19:42;4.20;;;1.70;;
15202;SDS011;7702;51.046;5.184;2022-08-21T13:22:21;3.03;;;1.40;;
15202;SDS011;7702;51.046;5.184;2022-08-21T13:24:47;4.20;;;1.87;;
15202;SDS011;7702;51.046;5.184;2022-08-21T13:27:17;3.63;;;1.30;;
15202;SDS011;7702;51.046;5.184;2022-08-21T13:29:48;4.03;;;1.50;;
15202;SDS011;7702;51.046;5.184;2022-08-21T13:32:26;3.63;;;1.27;;
15202;SDS011;7702;51.046;5.184;2022-08-21T13:34:55;4.97;;;2.17;;
15202;SDS011;7702;51.046;5.184;2022-08-21T13:37:22;2.93;;;1.23;;
15202;SDS011;7702;51.046;5.184;2022-08-21T13:39:51;4.60;;;1.60;;
15202;SDS011;7702;51.046;5.184;2022-08-21T13:42:17;5.47;;;1.87;;
15202;SDS011;7702;51.046;5.184;2022-08-21T13:44:44;4.87;;;1.70;;
15202;SDS011;7702;51.046;5.184;2022-08-21T13:47:13;4.87;;;2.27;;
15202;SDS011;7702;51.046;5.184;2022-08-21T13:49:41;7.70;;;1.90;;
15202;SDS011;7702;51.046;5.184;2022-08-21T13:52:18;6.90;;;1.90;;
15202;SDS011;7702;51.046;5.184;2022-08-21T13:54:52;6.17;;;1.73;;
15202;SDS011;7702;51.046;5.184;2022-08-21T13:57:26;2.73;;;1.50;;
15202;SDS011;7702;51.046;5.184;2022-08-21T14:00:16;4.53;;;1.63;;
15202;SDS011;7702;51.046;5.184;2022-08-21T14:02:51;2.83;;;1.87;;
15202;SDS011;7702;51.046;5.184;2022-08-21T14:05:24;5.97;;;1.53;;
15202;SDS011;7702;51.046;5.184;2022-08-21T14:07:57;4.30;;;1.53;;
15202;SDS011;7702;51.046;5.184;2022-08-21T14:10:31;4.47;;;1.90;;
15202;SDS011;7702;51.046;5.184;2022-08-21T14:13:14;4.13;;;1.50;;
15202;SDS011;7702;51.046;5.184;2022-08-21T14:15:59;3.67;;;1.20;;
15202;SDS011;7702;51.046;5.184;2022-08-21T14:18:26;5.37;;;1.67;;
15202;SDS011;7702;51.046;5.184;2022-08-21T14:21:03;6.30;;;1.87;;
15202;SDS011;7702;51.046;5.184;2022-08-21T14:23:34;4.23;;;1.67;;
15202;SDS011;7702;51.046;5.184;2022-08-21T14:26:02;5.60;;;1.60;;
15202;SDS011;7702;51.046;5.184;2022-08-21T14:30:57;2.60;;;1.33;;
15202;SDS011;7702;51.046;5.184;2022-08-21T14:33:35;4.20;;;1.53;;
15202;SDS011;7702;51.046;5.184;2022-08-21T14:36:00;4.83;;;1.40;;
15202;SDS011;7702;51.046;5.184;2022-08-21T14:38:27;4.03;;;1.80;;
15202;SDS011;7702;51.046;5.184;2022-08-21T14:41:00;4.03;;;1.60;;
15202;SDS011;7702;51.046;5.184;2022-08-21T14:43:31;5.20;;;1.63;;
15202;SDS011;7702;51.046;5.184;2022-08-21T14:45:58;4.03;;;1.53;;
15202;SDS011;7702;51.046;5.184;2022-08-21T14:48:26;3.57;;;1.80;;
15202;SDS011;7702;51.046;5.184;2022-08-21T14:50:52;5.67;;;1.80;;
15202;SDS011;7702;51.046;5.184;2022-08-21T14:53:17;6.23;;;2.97;;
15202;SDS011;7702;51.046;5.184;2022-08-21T14:55:43;4.83;;;1.70;;
15202;SDS011;7702;51.046;5.184;2022-08-21T14:58:27;4.07;;;1.77;;
15202;SDS011;7702;51.046;5.184;2022-08-21T15:00:54;6.23;;;2.43;;
15202;SDS011;7702;51.046;5.184;2022-08-21T15:03:21;4.30;;;1.50;;
15202;SDS011;7702;51.046;5.184;2022-08-21T15:05:47;4.37;;;1.87;;
15202;SDS011;7702;51.046;5.184;2022-08-21T15:08:13;4.97;;;1.53;;
15202;SDS011;7702;51.046;5.184;2022-08-21T15:10:39;5.03;;;1.67;;
15202;SDS011;7702;51.046;5.184;2022-08-21T15:13:05;5.73;;;1.87;;
15202;SDS011;7702;51.046;5.184;2022-08-21T15:15:34;5.87;;;1.87;;
15202;SDS011;7702;51.046;5.184;2022-08-21T15:18:05;7.33;;;1.90;;
15202;SDS011;7702;51.046;5.184;2022-08-21T15:20:30;4.37;;;1.67;;
15202;SDS011;7702;51.046;5.184;2022-08-21T15:22:56;4.43;;;1.27;;
15202;SDS011;7702;51.046;5.184;2022-08-21T15:25:23;5.50;;;1.53;;
15202;SDS011;7702;51.046;5.184;2022-08-21T15:27:48;4.87;;;1.70;;
15202;SDS011;7702;51.046;5.184;2022-08-21T15:30:15;5.30;;;2.17;;
15202;SDS011;7702;51.046;5.184;2022-08-21T15:32:40;3.83;;;1.87;;
15202;SDS011;7702;51.046;5.184;2022-08-21T15:35:06;6.43;;;1.93;;
15202;SDS011;7702;51.046;5.184;2022-08-21T15:37:33;5.03;;;1.90;;
15202;SDS011;7702;51.046;5.184;2022-08-21T15:39:59;3.73;;;2.07;;
15202;SDS011;7702;51.046;5.184;2022-08-21T15:42:25;5.23;;;1.83;;
15202;SDS011;7702;51.046;5.184;2022-08-21T15:44:51;3.97;;;2.17;;
15202;SDS011;7702;51.046;5.184;2022-08-21T15:47:21;3.77;;;1.60;;
15202;SDS011;7702;51.046;5.184;2022-08-21T15:49:50;4.03;;;1.77;;
15202;SDS011;7702;51.046;5.184;2022-08-21T15:52:16;2.93;;;1.70;;
15202;SDS011;7702;51.046;5.184;2022-08-21T15:54:44;6.10;;;2.10;;
15202;SDS011;7702;51.046;5.184;2022-08-21T15:57:11;4.57;;;1.93;;
15202;SDS011;7702;51.046;5.184;2022-08-21T15:59:43;4.63;;;1.40;;
15202;SDS011;7702;51.046;5.184;2022-08-21T16:02:15;5.60;;;2.20;;
15202;SDS011;7702;51.046;5.184;2022-08-21T16:04:44;4.43;;;2.40;;
15202;SDS011;7702;51.046;5.184;2022-08-21T16:07:10;5.17;;;1.70;;
15202;SDS011;7702;51.046;5.184;2022-08-21T16:09:36;4.73;;;1.90;;
15202;SDS011;7702;51.046;5.184;2022-08-21T16:12:03;3.70;;;1.67;;
15202;SDS011;7702;51.046;5.184;2022-08-21T16:14:30;4.40;;;1.93;;
15202;SDS011;7702;51.046;5.184;2022-08-21T16:16:59;5.43;;;1.83;;
15202;SDS011;7702;51.046;5.184;2022-08-21T16:19:27;4.77;;;1.87;;
15202;SDS011;7702;51.046;5.184;2022-08-21T16:21:53;3.17;;;1.63;;
15202;SDS011;7702;51.046;5.184;2022-08-21T16:24:19;4.57;;;1.60;;
15202;SDS011;7702;51.046;5.184;2022-08-21T16:26:45;6.33;;;2.40;;
15202;SDS011;7702;51.046;5.184;2022-08-21T16:29:10;4.80;;;1.80;;
15202;SDS011;7702;51.046;5.184;2022-08-21T16:31:36;7.30;;;1.80;;
15202;SDS011;7702;51.046;5.184;2022-08-21T16:34:02;4.63;;;1.97;;
15202;SDS011;7702;51.046;5.184;2022-08-21T16:36:28;7.97;;;2.47;;
15202;SDS011;7702;51.046;5.184;2022-08-21T16:38:54;3.77;;;1.63;;
15202;SDS011;7702;51.046;5.184;2022-08-21T16:41:22;3.37;;;1.60;;
15202;SDS011;7702;51.046;5.184;2022-08-21T16:43:49;6.93;;;1.80;;
15202;SDS011;7702;51.046;5.184;2022-08-21T16:46:16;5.63;;;1.73;;
15202;SDS011;7702;51.046;5.184;2022-08-21T16:48:43;4.63;;;1.90;;
15202;SDS011;7702;51.046;5.184;2022-08-21T16:51:09;4.37;;;1.50;;
15202;SDS011;7702;51.046;5.184;2022-08-21T16:53:36;4.73;;;1.60;;